QFA7305 YBBN-YMML
Flight info
| Callsign | QFA7305 |
|---|---|
| Flight time | N/A |
| Altitude | 34000 |
| Route | YBBN/19L 3212S14924E DORSU H119 ARBEY ARBE8A/34 |
| Aircraft | A321/M-SDE3FGHIRWY/LB1 |
Departure
| Time | N/A |
|---|---|
| Airport | Brisbane International Airport (YBBN) |
Arrival
| Time | 2026-04-30 10:58 |
|---|---|
| Airport | Melbourne Airport (YMML) |
| Time | Latitude | Longitude | Altitude | Speed | Heading |
|---|---|---|---|---|---|
| 2026-04-30 10:47 | -37.47190 | 144.82296 | 12004 ft | 311 kts | 248° |
| 2026-04-30 10:47 | -37.48341 | 144.79983 | 11652 ft | 314 kts | 230° |
| 2026-04-30 10:47 | -37.50008 | 144.78204 | 11202 ft | 317 kts | 212° |
| 2026-04-30 10:48 | -37.52009 | 144.77090 | 10775 ft | 319 kts | 201° |
| 2026-04-30 10:48 | -37.54067 | 144.76131 | 10568 ft | 311 kts | 202° |
| 2026-04-30 10:48 | -37.56082 | 144.75180 | 10399 ft | 304 kts | 202° |
| 2026-04-30 10:48 | -37.58065 | 144.74249 | 10218 ft | 307 kts | 199° |
| 2026-04-30 10:49 | -37.60150 | 144.73730 | 9666 ft | 306 kts | 184° |
| 2026-04-30 10:49 | -37.62270 | 144.73580 | 9111 ft | 303 kts | 184° |
| 2026-04-30 10:49 | -37.64372 | 144.73441 | 8549 ft | 301 kts | 184° |
| 2026-04-30 10:49 | -37.66446 | 144.73303 | 8018 ft | 298 kts | 184° |
| 2026-04-30 10:50 | -37.68503 | 144.73163 | 7548 ft | 293 kts | 184° |
| 2026-04-30 10:50 | -37.70475 | 144.73025 | 7408 ft | 275 kts | 184° |
| 2026-04-30 10:50 | -37.72304 | 144.72938 | 7281 ft | 258 kts | 182° |
| 2026-04-30 10:50 | -37.74073 | 144.72903 | 6954 ft | 253 kts | 182° |
| 2026-04-30 10:51 | -37.75817 | 144.72886 | 6779 ft | 254 kts | 181° |
| 2026-04-30 10:51 | -37.77626 | 144.72871 | 6204 ft | 265 kts | 181° |
| 2026-04-30 10:51 | -37.79426 | 144.72899 | 6041 ft | 249 kts | 173° |
| 2026-04-30 10:51 | -37.81014 | 144.73446 | 5912 ft | 225 kts | 155° |
| 2026-04-30 10:52 | -37.82254 | 144.74472 | 5633 ft | 208 kts | 136° |
| 2026-04-30 10:52 | -37.83167 | 144.75859 | 5176 ft | 204 kts | 120° |
| 2026-04-30 10:52 | -37.83792 | 144.77461 | 4656 ft | 202 kts | 107° |
| 2026-04-30 10:52 | -37.84123 | 144.79153 | 4171 ft | 199 kts | 94° |
| 2026-04-30 10:53 | -37.84137 | 144.80936 | 3691 ft | 200 kts | 79° |
| 2026-04-30 10:53 | -37.83940 | 144.82586 | 3532 ft | 180 kts | 77° |
| 2026-04-30 10:53 | -37.83772 | 144.84042 | 3389 ft | 158 kts | 77° |
| 2026-04-30 10:53 | -37.83384 | 144.85287 | 3314 ft | 149 kts | 50° |
| 2026-04-30 10:54 | -37.82637 | 144.86135 | 3226 ft | 141 kts | 26° |
| 2026-04-30 10:54 | -37.81716 | 144.86491 | 3011 ft | 137 kts | 3° |
| 2026-04-30 10:54 | -37.80772 | 144.86382 | 2818 ft | 136 kts | 352° |
| 2026-04-30 10:54 | -37.79839 | 144.86202 | 2624 ft | 135 kts | 352° |
| 2026-04-30 10:55 | -37.78906 | 144.86028 | 2427 ft | 135 kts | 352° |
| 2026-04-30 10:55 | -37.77973 | 144.85854 | 2238 ft | 135 kts | 352° |
| 2026-04-30 10:55 | -37.77055 | 144.85682 | 2047 ft | 136 kts | 352° |
| 2026-04-30 10:55 | -37.76118 | 144.85506 | 1848 ft | 136 kts | 352° |
| 2026-04-30 10:56 | -37.75177 | 144.85329 | 1652 ft | 137 kts | 352° |
| 2026-04-30 10:56 | -37.74232 | 144.85153 | 1471 ft | 138 kts | 352° |
| 2026-04-30 10:56 | -37.73286 | 144.84978 | 1292 ft | 138 kts | 352° |
| 2026-04-30 10:56 | -37.72557 | 144.84844 | 1161 ft | 139 kts | 352° |
| 2026-04-30 10:57 | -37.71595 | 144.84667 | 980 ft | 140 kts | 352° |
| 2026-04-30 10:57 | -37.70630 | 144.84487 | 789 ft | 140 kts | 352° |
| 2026-04-30 10:57 | -37.69681 | 144.84311 | 595 ft | 139 kts | 351° |
| 2026-04-30 10:57 | -37.68727 | 144.84117 | 405 ft | 139 kts | 351° |
| 2026-04-30 10:58 | -37.68109 | 144.84002 | 358 ft | 127 kts | 352° |
| 2026-04-30 10:58 | -37.67650 | 144.83923 | 365 ft | 67 kts | 352° |
| 2026-04-30 10:58 | -37.67403 | 144.83880 | 370 ft | 26 kts | 352° |
| 2026-04-30 10:58 | -37.67207 | 144.83843 | 379 ft | 30 kts | 352° |
| 2026-04-30 10:59 | -37.67016 | 144.83838 | 385 ft | 26 kts | 9° |
| 2026-04-30 10:59 | -37.66860 | 144.83902 | 391 ft | 22 kts | 22° |
| 2026-04-30 10:59 | -37.66741 | 144.83987 | 391 ft | 18 kts | 53° |
| 2026-04-30 10:59 | -37.66710 | 144.84134 | 395 ft | 17 kts | 83° |
| 2026-04-30 11:00 | -37.66696 | 144.84247 | 395 ft | 16 kts | 81° |
| 2026-04-30 11:00 | -37.66679 | 144.84375 | 396 ft | 14 kts | 81° |
| 2026-04-30 11:00 | -37.66666 | 144.84492 | 398 ft | 15 kts | 82° |
| 2026-04-30 11:00 | -37.66646 | 144.84656 | 398 ft | 18 kts | 81° |
| 2026-04-30 11:01 | -37.66606 | 144.84787 | 403 ft | 15 kts | 37° |
| 2026-04-30 11:01 | -37.66547 | 144.84870 | 406 ft | 12 kts | 75° |
| 2026-04-30 11:01 | -37.66533 | 144.84968 | 406 ft | 11 kts | 80° |
| 2026-04-30 11:01 | -37.66555 | 144.85050 | 405 ft | 11 kts | 149° |
| 2026-04-30 11:02 | -37.66634 | 144.85070 | 402 ft | 11 kts | 171° |
| 2026-04-30 11:02 | -37.66666 | 144.85075 | 401 ft | 3 kts | 174° |
| 2026-04-30 11:02 | -37.66681 | 144.85064 | 400 ft | 2 kts | 234° |
| 2026-04-30 11:02 | -37.66688 | 144.85041 | 400 ft | 3 kts | 255° |
| 2026-04-30 11:03 | -37.66691 | 144.85020 | 397 ft | 1 kts | 260° |
| 2026-04-30 11:03 | -37.66693 | 144.85003 | 400 ft | 2 kts | 261° |
| 2026-04-30 11:03 | -37.66693 | 144.85002 | 400 ft | 0 kts | 261° |